Time;durP1;ratioP1;P1;durP2;ratioP2;P2;SDS_P1;SDS_P2;PMS_P1;PMS_P2;Temp;Humidity;BMP_temperature;BMP_pressure;BME280_temperature;BME280_humidity;BME280_pressure;Samples;Min_cycle;Max_cycle;Signal;HPM_P1;HPM_P2
2023/03/17 00:01:15;;;;;;;4.10;3.10;;;9.10;99.90;;;;;;7388069;19;20161;-74
2023/03/17 00:03:45;;;;;;;6.40;3.27;;;9.20;99.90;;;;;;7385150;19;20498;-73
2023/03/17 00:06:32;;;;;;;5.27;3.20;;;9.10;99.90;;;;;;7386012;19;20579;-73
2023/03/17 00:08:58;;;;;;;5.47;2.90;;;9.10;99.90;;;;;;7386291;19;20146;-73
2023/03/17 00:11:26;;;;;;;3.80;2.93;;;9.10;99.90;;;;;;7382573;19;20147;-73
2023/03/17 00:13:52;;;;;;;5.10;3.07;;;9.10;99.90;;;;;;7384739;19;20155;-73
2023/03/17 00:16:21;;;;;;;3.43;2.70;;;9.10;99.90;;;;;;7386480;19;20517;-74
2023/03/17 00:18:49;;;;;;;3.30;2.80;;;9.10;99.90;;;;;;7385946;19;20147;-73
2023/03/17 00:21:30;;;;;;;5.13;2.90;;;9.00;99.90;;;;;;7383355;19;20158;-74
2023/03/17 00:23:57;;;;;;;6.53;3.17;;;9.10;99.90;;;;;;7393720;19;20142;-73
2023/03/17 00:26:25;;;;;;;4.23;3.27;;;9.00;99.90;;;;;;7392529;19;20146;-74
2023/03/17 00:28:52;;;;;;;3.17;2.53;;;9.10;99.90;;;;;;7391350;19;20166;-74
2023/03/17 00:31:21;;;;;;;4.53;2.87;;;8.90;99.90;;;;;;7388583;19;20162;-73
2023/03/17 00:33:49;;;;;;;4.00;2.53;;;9.00;99.90;;;;;;7391678;19;20487;-74
2023/03/17 00:36:24;;;;;;;3.70;2.63;;;8.90;99.90;;;;;;7391199;19;20188;-74
2023/03/17 00:38:51;;;;;;;5.20;3.00;;;9.00;99.90;;;;;;7389513;19;20164;-71
2023/03/17 00:41:19;;;;;;;6.63;2.70;;;9.10;99.90;;;;;;7393246;19;20134;-74
2023/03/17 00:43:45;;;;;;;4.53;2.60;;;9.10;99.90;;;;;;7389943;19;20223;-74
2023/03/17 00:46:16;;;;;;;3.87;2.73;;;9.10;99.90;;;;;;7393213;19;20158;-73
2023/03/17 00:48:45;;;;;;;4.97;3.00;;;9.10;99.90;;;;;;7390656;19;20166;-73
2023/03/17 00:51:11;;;;;;;6.37;3.07;;;9.00;99.90;;;;;;7389872;19;20229;-74
2023/03/17 00:53:37;;;;;;;3.73;2.73;;;9.00;99.90;;;;;;7391818;19;20747;-73
2023/03/17 00:56:10;;;;;;;4.67;3.20;;;9.10;99.90;;;;;;7392895;19;20143;-74
2023/03/17 00:58:35;;;;;;;3.80;2.87;;;9.00;99.90;;;;;;7392025;19;20150;-73
2023/03/17 01:01:03;;;;;;;4.67;2.97;;;9.00;99.90;;;;;;7390658;19;20543;-73
2023/03/17 01:03:31;;;;;;;3.97;2.90;;;9.00;99.90;;;;;;7388901;19;20185;-73
2023/03/17 01:06:01;;;;;;;4.23;3.03;;;9.00;99.90;;;;;;7390020;19;20922;-73
2023/03/17 01:08:35;;;;;;;4.30;2.70;;;9.00;99.90;;;;;;7392796;19;20223;-73
2023/03/17 01:11:02;;;;;;;4.87;2.83;;;9.00;99.90;;;;;;7388411;19;20146;-74
2023/03/17 01:13:28;;;;;;;6.93;3.50;;;9.00;99.90;;;;;;7388645;19;20139;-74
2023/03/17 01:15:56;;;;;;;5.27;2.90;;;9.00;99.90;;;;;;7392971;19;20139;-73
2023/03/17 01:18:22;;;;;;;5.60;3.00;;;8.90;99.90;;;;;;7389516;19;20146;-73
2023/03/17 01:20:48;;;;;;;3.83;3.17;;;9.00;99.90;;;;;;7390805;19;20146;-73
2023/03/17 01:23:15;;;;;;;4.97;3.03;;;9.00;99.90;;;;;;7391392;19;20831;-73
2023/03/17 01:25:41;;;;;;;4.37;3.10;;;9.10;99.90;;;;;;7392810;19;20919;-74
2023/03/17 01:28:13;;;;;;;3.27;2.87;;;9.10;99.90;;;;;;7387663;19;20154;-74
2023/03/17 01:30:39;;;;;;;5.30;3.00;;;9.10;99.90;;;;;;7388494;19;20151;-74
2023/03/17 01:33:08;;;;;;;4.53;3.30;;;9.10;99.90;;;;;;7389884;19;20135;-74
2023/03/17 01:35:35;;;;;;;4.67;2.87;;;9.00;99.90;;;;;;7386497;19;20139;-72
2023/03/17 01:38:02;;;;;;;4.67;2.77;;;9.00;99.90;;;;;;7389669;19;20250;-73
2023/03/17 01:40:32;;;;;;;3.70;2.60;;;9.10;99.90;;;;;;7389796;19;20142;-73
2023/03/17 01:43:09;;;;;;;5.53;3.10;;;9.10;99.90;;;;;;7390363;19;20155;-74
2023/03/17 01:46:12;;;;;;;5.43;2.93;;;9.10;99.90;;;;;;7385682;19;20194;-74
2023/03/17 01:48:47;;;;;;;4.07;3.07;;;9.10;99.90;;;;;;7390423;19;20150;-72
2023/03/17 01:51:26;;;;;;;3.50;2.93;;;9.20;99.90;;;;;;7387791;19;20164;-73
2023/03/17 01:53:52;;;;;;;5.50;2.63;;;9.20;99.90;;;;;;7388944;19;20140;-74
2023/03/17 01:56:19;;;;;;;3.97;3.00;;;9.20;99.90;;;;;;7388423;19;20142;-75
2023/03/17 01:58:48;;;;;;;3.77;2.90;;;9.10;99.90;;;;;;7388873;19;20138;-73
2023/03/17 02:01:14;;;;;;;5.20;3.23;;;9.20;99.90;;;;;;7388099;19;20135;-74
2023/03/17 02:03:41;;;;;;;4.73;2.67;;;9.20;99.90;;;;;;7387515;19;20735;-73
2023/03/17 02:06:08;;;;;;;5.03;2.77;;;9.20;99.90;;;;;;7389329;19;20164;-74
2023/03/17 02:08:34;;;;;;;4.20;2.83;;;9.20;99.90;;;;;;7386580;19;20142;-73
2023/03/17 02:11:02;;;;;;;4.33;3.13;;;9.00;99.90;;;;;;7389081;19;20137;-74
2023/03/17 02:13:28;;;;;;;4.43;2.90;;;9.10;99.90;;;;;;7387318;19;20162;-73
2023/03/17 02:15:54;;;;;;;6.67;2.67;;;9.10;99.90;;;;;;7388447;19;20138;-73
2023/03/17 02:18:21;;;;;;;4.87;2.73;;;8.60;99.90;;;;;;7390197;19;20131;-73
2023/03/17 02:20:47;;;;;;;4.23;2.50;;;8.60;99.90;;;;;;7389447;19;20149;-75
2023/03/17 02:23:21;;;;;;;3.90;2.63;;;8.70;99.90;;;;;;7386272;19;20143;-73
2023/03/17 02:25:48;;;;;;;3.57;2.90;;;8.30;99.90;;;;;;7387964;19;20205;-73
2023/03/17 02:28:20;;;;;;;3.40;2.60;;;8.20;99.90;;;;;;7389368;19;20150;-73
2023/03/17 02:30:46;;;;;;;3.90;2.47;;;8.30;99.90;;;;;;7388836;19;20222;-73
2023/03/17 02:33:11;;;;;;;4.27;3.13;;;8.50;99.90;;;;;;7387716;19;20599;-73
2023/03/17 02:35:38;;;;;;;3.77;2.57;;;8.70;99.90;;;;;;7389632;19;20142;-74
2023/03/17 02:38:04;;;;;;;6.00;2.60;;;8.50;99.90;;;;;;7386099;19;20138;-74
2023/03/17 02:40:30;;;;;;;4.43;2.40;;;8.60;99.90;;;;;;7386224;19;20142;-74
2023/03/17 02:42:56;;;;;;;4.27;2.80;;;8.60;99.90;;;;;;7386483;19;20469;-72
2023/03/17 02:45:22;;;;;;;3.83;2.90;;;8.80;99.90;;;;;;7386278;19;20394;-74
2023/03/17 02:47:50;;;;;;;4.53;2.90;;;8.80;99.90;;;;;;7389564;19;20630;-73
2023/03/17 02:50:23;;;;;;;3.73;2.50;;;8.90;99.90;;;;;;7386249;19;20607;-73
2023/03/17 02:52:50;;;;;;;5.43;3.13;;;8.90;99.90;;;;;;7387158;19;20139;-73
2023/03/17 02:55:16;;;;;;;3.60;2.47;;;9.00;99.90;;;;;;7386442;19;20155;-74
2023/03/17 02:57:42;;;;;;;3.43;2.60;;;8.90;99.90;;;;;;7386846;19;20165;-73
2023/03/17 03:00:09;;;;;;;4.33;2.70;;;8.70;99.90;;;;;;7387379;19;20597;-74
2023/03/17 03:02:36;;;;;;;3.50;3.03;;;8.70;99.90;;;;;;7385779;19;20157;-74
2023/03/17 03:05:03;;;;;;;3.93;2.73;;;8.80;99.90;;;;;;7384984;19;20617;-73
2023/03/17 03:07:29;;;;;;;3.53;2.90;;;8.90;99.90;;;;;;7387096;19;20778;-73
2023/03/17 03:09:55;;;;;;;4.13;2.90;;;8.90;99.90;;;;;;7385786;19;20130;-74
2023/03/17 03:12:20;;;;;;;3.67;2.70;;;9.00;99.90;;;;;;7381618;19;20630;-74
2023/03/17 03:14:46;;;;;;;3.83;2.67;;;9.00;99.90;;;;;;7385872;19;20146;-73
2023/03/17 03:17:12;;;;;;;3.73;2.87;;;8.40;99.90;;;;;;7387118;19;20152;-73
2023/03/17 03:19:40;;;;;;;4.40;3.10;;;8.50;99.90;;;;;;7386896;19;20134;-73
2023/03/17 03:22:07;;;;;;;5.10;2.90;;;8.70;99.90;;;;;;7384993;19;20576;-74
2023/03/17 03:24:33;;;;;;;6.37;3.33;;;8.80;99.90;;;;;;7386192;19;20146;-74
2023/03/17 03:26:59;;;;;;;5.37;2.80;;;8.80;99.90;;;;;;7386584;19;20496;-73
2023/03/17 03:29:25;;;;;;;3.83;2.70;;;8.30;99.90;;;;;;7383135;19;20143;-74
2023/03/17 03:31:51;;;;;;;3.60;3.13;;;8.00;99.90;;;;;;7384564;19;20134;-74
2023/03/17 03:34:17;;;;;;;4.17;3.07;;;8.20;99.90;;;;;;7387792;19;20505;-73
2023/03/17 03:36:43;;;;;;;4.57;2.60;;;8.60;99.90;;;;;;7385138;19;20143;-73
2023/03/17 03:39:09;;;;;;;5.10;3.03;;;8.70;99.90;;;;;;7387685;19;20202;-73
2023/03/17 03:41:35;;;;;;;5.10;2.90;;;8.60;99.90;;;;;;7376492;19;20171;-73
2023/03/17 03:44:01;;;;;;;4.30;2.63;;;8.70;99.90;;;;;;7386219;19;20138;-74
2023/03/17 03:46:27;;;;;;;2.93;2.50;;;8.60;99.90;;;;;;7385873;19;20639;-74
2023/03/17 03:48:53;;;;;;;5.77;2.93;;;8.60;99.90;;;;;;7385386;19;20147;-73
2023/03/17 03:51:19;;;;;;;4.27;2.60;;;8.50;99.90;;;;;;7384137;19;20516;-74
2023/03/17 03:53:47;;;;;;;3.97;2.40;;;8.60;99.90;;;;;;7386606;19;20210;-73
2023/03/17 03:56:13;;;;;;;3.50;2.60;;;8.70;99.90;;;;;;7387297;19;20142;-74
2023/03/17 03:58:39;;;;;;;4.83;2.50;;;8.70;99.90;;;;;;7391256;19;20138;-73
2023/03/17 04:01:06;;;;;;;3.77;2.67;;;8.20;99.90;;;;;;7392884;19;20226;-74
2023/03/17 04:03:32;;;;;;;4.20;2.57;;;7.90;99.90;;;;;;7390991;19;20257;-74
2023/03/17 04:05:58;;;;;;;4.80;2.77;;;8.10;99.90;;;;;;7393620;19;20218;-74
2023/03/17 04:08:24;;;;;;;4.40;2.70;;;8.20;99.90;;;;;;7392614;19;20154;-73
2023/03/17 04:10:50;;;;;;;4.83;2.50;;;8.40;99.90;;;;;;7384460;19;20233;-73
2023/03/17 04:13:16;;;;;;;4.53;2.50;;;8.40;99.90;;;;;;7391904;19;20151;-74
2023/03/17 04:15:41;;;;;;;5.23;2.63;;;8.30;99.90;;;;;;7394775;19;20625;-73
2023/03/17 04:18:07;;;;;;;4.10;3.20;;;8.10;99.90;;;;;;7391330;19;20126;-73
2023/03/17 04:20:33;;;;;;;4.57;2.93;;;8.10;99.90;;;;;;7391144;19;20127;-72
2023/03/17 04:22:58;;;;;;;5.77;3.07;;;8.20;99.90;;;;;;7391158;19;20146;-74
2023/03/17 04:25:25;;;;;;;3.37;2.53;;;8.30;99.90;;;;;;7394591;19;20138;-75
2023/03/17 04:27:50;;;;;;;3.43;2.93;;;8.20;99.90;;;;;;7391118;19;20163;-73
2023/03/17 04:30:17;;;;;;;4.53;2.83;;;8.20;99.90;;;;;;7390962;19;20135;-72
2023/03/17 04:32:43;;;;;;;4.70;3.23;;;8.00;99.90;;;;;;7391702;19;20127;-73
2023/03/17 04:35:15;;;;;;;5.80;3.00;;;7.80;99.90;;;;;;7390987;19;20576;-74
2023/03/17 04:37:41;;;;;;;3.73;2.73;;;8.00;99.90;;;;;;7391993;19;20222;-73
2023/03/17 04:40:09;;;;;;;4.27;2.93;;;8.20;99.90;;;;;;7391811;19;20450;-73
2023/03/17 04:42:35;;;;;;;3.70;2.70;;;8.00;99.90;;;;;;7391309;19;20502;-73
2023/03/17 04:45:03;;;;;;;4.83;2.77;;;8.10;99.90;;;;;;7392794;19;20451;-72
2023/03/17 04:47:29;;;;;;;6.90;2.83;;;8.10;99.90;;;;;;7392093;19;20127;-73
2023/03/17 04:49:54;;;;;;;7.33;3.07;;;8.20;99.90;;;;;;7393564;19;20591;-72
2023/03/17 04:52:20;;;;;;;5.23;2.80;;;8.00;99.90;;;;;;7390393;19;20142;-73
2023/03/17 04:54:46;;;;;;;3.57;2.90;;;7.50;99.90;;;;;;7392713;19;20139;-73
2023/03/17 04:57:12;;;;;;;4.17;2.90;;;7.60;99.90;;;;;;7391208;19;20126;-73
2023/03/17 04:59:37;;;;;;;4.60;3.07;;;7.90;99.90;;;;;;7391232;19;20508;-73
2023/03/17 05:02:03;;;;;;;5.10;3.10;;;8.00;99.90;;;;;;7390694;19;20146;-72
2023/03/17 05:04:29;;;;;;;4.67;3.30;;;7.90;99.90;;;;;;7387985;19;20618;-73
2023/03/17 05:06:57;;;;;;;5.77;3.00;;;7.90;99.90;;;;;;7392145;19;20142;-72
2023/03/17 05:09:23;;;;;;;5.63;3.30;;;7.90;99.90;;;;;;7389223;19;20467;-71
2023/03/17 05:11:50;;;;;;;4.20;2.93;;;7.80;99.90;;;;;;7389261;19;20138;-73
2023/03/17 05:14:16;;;;;;;4.20;2.87;;;7.70;99.90;;;;;;7390259;19;20131;-73
2023/03/17 05:16:42;;;;;;;4.10;3.17;;;7.80;99.90;;;;;;7390112;19;20659;-73
2023/03/17 05:19:08;;;;;;;6.43;3.70;;;8.00;99.90;;;;;;7392517;19;20143;-73
2023/03/17 05:21:33;;;;;;;9.07;3.03;;;7.80;99.90;;;;;;7390011;19;20146;-71
2023/03/17 05:24:00;;;;;;;5.97;3.60;;;7.70;99.90;;;;;;7389954;19;20134;-72
2023/03/17 05:26:25;;;;;;;5.40;3.53;;;7.60;99.90;;;;;;7390877;19;20238;-73
2023/03/17 05:28:52;;;;;;;4.30;3.50;;;7.70;99.90;;;;;;7390021;19;20610;-72
2023/03/17 05:31:18;;;;;;;4.77;3.20;;;7.80;99.90;;;;;;7387190;19;20147;-74
2023/03/17 05:33:48;;;;;;;4.30;3.00;;;7.50;99.90;;;;;;7390606;19;20162;-73
2023/03/17 05:36:14;;;;;;;4.23;3.30;;;7.10;99.90;;;;;;7389165;19;20221;-73
2023/03/17 05:38:40;;;;;;;6.70;3.23;;;7.10;99.90;;;;;;7388766;19;20478;-72
2023/03/17 05:41:06;;;;;;;4.23;2.97;;;7.30;99.90;;;;;;7387463;19;20202;-72
2023/03/17 05:43:32;;;;;;;4.43;3.43;;;7.50;99.90;;;;;;7387832;19;20808;-72
2023/03/17 05:45:59;;;;;;;5.53;3.20;;;7.60;99.90;;;;;;7390411;19;20135;-73
2023/03/17 05:48:25;;;;;;;4.83;3.20;;;7.60;99.90;;;;;;7389025;19;20998;-73
2023/03/17 05:50:52;;;;;;;6.27;3.73;;;7.20;99.90;;;;;;7388488;19;20139;-72
2023/03/17 05:53:18;;;;;;;6.10;3.17;;;6.90;99.90;;;;;;7387040;19;20150;-71
2023/03/17 05:55:44;;;;;;;4.80;3.20;;;6.70;99.90;;;;;;7388583;19;20146;-73
2023/03/17 05:58:10;;;;;;;6.60;3.20;;;7.00;99.90;;;;;;7387647;19;20694;-72
2023/03/17 06:00:36;;;;;;;5.17;3.20;;;7.40;99.90;;;;;;7389578;19;20137;-73
2023/03/17 06:03:03;;;;;;;6.67;3.10;;;7.60;99.90;;;;;;7386584;19;20139;-72
2023/03/17 06:05:29;;;;;;;4.80;2.70;;;7.80;99.90;;;;;;7386837;19;20150;-73
2023/03/17 06:07:55;;;;;;;5.87;3.10;;;7.90;99.90;;;;;;7388413;19;20615;-73
2023/03/17 06:10:22;;;;;;;5.70;3.27;;;8.00;99.90;;;;;;7386101;19;20145;-74
2023/03/17 06:12:47;;;;;;;6.07;3.40;;;7.80;99.90;;;;;;7389289;19;20598;-74
2023/03/17 06:15:15;;;;;;;4.43;2.67;;;7.90;99.90;;;;;;7389694;19;20127;-73
2023/03/17 06:17:41;;;;;;;6.03;3.00;;;8.00;99.90;;;;;;7388225;19;20591;-73
2023/03/17 06:20:07;;;;;;;3.93;2.97;;;8.00;99.90;;;;;;7387006;19;20146;-73
2023/03/17 06:22:33;;;;;;;7.20;3.23;;;8.10;99.90;;;;;;7386347;19;20145;-74
2023/03/17 06:25:00;;;;;;;4.40;3.17;;;8.20;99.90;;;;;;7387989;19;20147;-73
2023/03/17 06:27:26;;;;;;;5.83;3.60;;;8.20;99.90;;;;;;7388509;19;20138;-73
2023/03/17 06:29:52;;;;;;;4.93;3.57;;;8.10;99.90;;;;;;7387787;19;20467;-74
2023/03/17 06:32:18;;;;;;;5.90;3.07;;;8.20;99.90;;;;;;7387538;19;20235;-74
2023/03/17 06:34:44;;;;;;;6.17;3.47;;;8.00;99.90;;;;;;7387753;19;20154;-74
2023/03/17 06:37:10;;;;;;;6.73;3.63;;;7.90;99.90;;;;;;7386295;19;20134;-73
2023/03/17 06:39:36;;;;;;;8.83;4.37;;;7.90;99.90;;;;;;7386669;19;20133;-73
2023/03/17 06:42:02;;;;;;;5.00;3.50;;;7.90;99.90;;;;;;7387018;19;20138;-73
2023/03/17 06:44:28;;;;;;;5.03;3.40;;;7.90;99.90;;;;;;7387461;19;20126;-72
2023/03/17 06:46:55;;;;;;;5.53;3.63;;;7.90;99.90;;;;;;7388946;19;20473;-74
2023/03/17 06:49:21;;;;;;;6.90;3.50;;;8.00;99.90;;;;;;7387349;19;20459;-72
2023/03/17 06:51:47;;;;;;;5.37;4.00;;;8.20;99.90;;;;;;7382960;19;20212;-74
2023/03/17 06:54:13;;;;;;;8.20;4.33;;;8.40;99.90;;;;;;7382070;19;20602;-75
2023/03/17 06:56:38;;;;;;;6.50;3.90;;;8.40;99.90;;;;;;7381969;19;20147;-73
2023/03/17 06:59:04;;;;;;;5.73;4.00;;;8.40;99.90;;;;;;7388948;19;20676;-73
2023/03/17 07:01:30;;;;;;;7.67;4.20;;;8.40;99.90;;;;;;7388013;19;20130;-73
2023/03/17 07:03:56;;;;;;;6.37;4.50;;;8.40;99.90;;;;;;7386920;19;20646;-74
2023/03/17 07:06:22;;;;;;;8.00;5.03;;;8.50;99.90;;;;;;7388526;19;20607;-75
2023/03/17 07:08:49;;;;;;;7.83;5.07;;;8.60;99.90;;;;;;7387621;19;20150;-74
2023/03/17 07:11:15;;;;;;;7.50;4.73;;;8.70;99.90;;;;;;7385111;19;21045;-73
2023/03/17 07:13:41;;;;;;;4.87;4.03;;;8.70;99.90;;;;;;7387091;19;20561;-73
2023/03/17 07:16:08;;;;;;;5.93;4.17;;;8.80;99.90;;;;;;7386385;19;20134;-73
2023/03/17 07:18:34;;;;;;;5.03;3.63;;;8.90;99.90;;;;;;7386260;19;20165;-73
2023/03/17 07:21:01;;;;;;;18.63;11.33;;;9.00;99.90;;;;;;7385722;19;20161;-74
2023/03/17 07:23:28;;;;;;;12.53;5.90;;;9.00;99.90;;;;;;7387419;19;20176;-73
2023/03/17 07:25:54;;;;;;;7.97;4.83;;;8.90;99.90;;;;;;7387895;19;20578;-74
2023/03/17 07:28:20;;;;;;;6.73;4.63;;;8.90;99.90;;;;;;7389838;19;20176;-74
2023/03/17 07:30:52;;;;;;;8.80;4.30;;;9.10;99.90;;;;;;7383837;19;20142;-73
2023/03/17 07:33:20;;;;;;;5.53;3.87;;;9.20;99.90;;;;;;7390977;19;20190;-74
2023/03/17 07:35:47;;;;;;;7.43;4.40;;;9.40;99.90;;;;;;7395046;19;20870;-73
2023/03/17 07:38:14;;;;;;;8.70;4.20;;;9.20;99.90;;;;;;7394091;19;20146;-73
2023/03/17 07:40:41;;;;;;;6.17;3.87;;;9.50;99.90;;;;;;7392863;19;20138;-74
2023/03/17 07:43:07;;;;;;;7.77;3.70;;;9.60;99.90;;;;;;7393339;19;20235;-73
2023/03/17 07:45:34;;;;;;;5.50;3.70;;;9.70;99.90;;;;;;7393739;19;20242;-74
2023/03/17 07:48:04;;;;;;;6.07;3.87;;;9.70;99.90;;;;;;7394463;19;20153;-73
2023/03/17 07:50:34;;;;;;;5.87;4.10;;;9.70;99.90;;;;;;7390087;19;20155;-74
2023/03/17 07:53:01;;;;;;;9.20;5.27;;;9.70;99.90;;;;;;7393624;19;20138;-73
2023/03/17 07:55:28;;;;;;;7.23;4.50;;;9.80;99.90;;;;;;7388626;19;20150;-74
2023/03/17 07:57:57;;;;;;;5.80;4.03;;;9.90;99.90;;;;;;7391356;19;20540;-73
2023/03/17 08:00:27;;;;;;;5.90;3.77;;;10.00;99.90;;;;;;7393354;19;20337;-74
2023/03/17 08:02:54;;;;;;;6.50;3.90;;;10.10;99.90;;;;;;7387827;19;20230;-73
2023/03/17 08:05:20;;;;;;;10.77;5.33;;;10.10;99.90;;;;;;7390497;19;20181;-73
2023/03/17 08:07:47;;;;;;;8.77;4.50;;;10.10;99.90;;;;;;7391083;19;20219;-74
2023/03/17 08:10:13;;;;;;;5.07;3.50;;;10.10;99.90;;;;;;7395604;19;20139;-74
2023/03/17 08:12:40;;;;;;;5.70;3.87;;;10.10;99.90;;;;;;7391528;19;20142;-73
2023/03/17 08:15:08;;;;;;;6.80;3.93;;;10.10;99.90;;;;;;7392842;19;20214;-72
2023/03/17 08:17:35;;;;;;;7.50;3.77;;;10.20;99.90;;;;;;7391762;19;20186;-74
2023/03/17 08:20:03;;;;;;;7.17;3.80;;;10.30;99.90;;;;;;7392956;19;20145;-73
2023/03/17 08:22:29;;;;;;;6.77;3.53;;;10.40;99.90;;;;;;7393285;19;20617;-74
2023/03/17 08:24:55;;;;;;;6.40;3.57;;;10.50;99.90;;;;;;7392942;19;20139;-74
2023/03/17 08:27:21;;;;;;;6.77;3.97;;;10.60;99.90;;;;;;7393439;19;20230;-74
2023/03/17 08:29:48;;;;;;;6.53;3.33;;;10.60;99.90;;;;;;7393389;19;20158;-74
2023/03/17 08:32:14;;;;;;;5.97;3.47;;;10.60;99.90;;;;;;7391124;19;20147;-73
2023/03/17 08:34:43;;;;;;;4.53;3.00;;;10.80;99.90;;;;;;7392422;19;20143;-74
2023/03/17 08:37:12;;;;;;;5.27;3.80;;;10.80;99.90;;;;;;7391906;19;20141;-74
2023/03/17 08:39:39;;;;;;;6.90;3.63;;;10.90;99.90;;;;;;7394055;19;20690;-75
2023/03/17 08:42:07;;;;;;;4.30;3.47;;;11.00;99.90;;;;;;7390756;19;20567;-74
2023/03/17 08:44:33;;;;;;;6.50;3.30;;;11.00;99.90;;;;;;7390868;19;20145;-73
2023/03/17 08:46:59;;;;;;;5.60;3.30;;;11.20;99.90;;;;;;7391426;19;20147;-74
2023/03/17 08:49:26;;;;;;;5.53;3.57;;;11.30;99.90;;;;;;7394854;19;20154;-75
2023/03/17 08:51:52;;;;;;;8.13;3.13;;;11.40;99.90;;;;;;7389081;19;20141;-75
2023/03/17 08:54:18;;;;;;;5.23;3.37;;;11.40;99.90;;;;;;7392170;19;20170;-73
2023/03/17 08:56:43;;;;;;;4.80;3.33;;;11.50;99.90;;;;;;7391124;19;20146;-76
2023/03/17 08:59:09;;;;;;;6.20;4.40;;;11.60;99.90;;;;;;7394034;19;20154;-74
2023/03/17 09:01:36;;;;;;;4.67;3.63;;;11.70;99.90;;;;;;7389851;19;20151;-73
2023/03/17 09:04:02;;;;;;;6.33;3.33;;;11.80;99.90;;;;;;7404259;19;20146;-74
2023/03/17 09:06:29;;;;;;;4.17;3.00;;;11.90;99.90;;;;;;7393736;19;20595;-75
2023/03/17 09:08:55;;;;;;;3.80;3.00;;;12.10;99.90;;;;;;7391564;19;20162;-75
2023/03/17 09:11:24;;;;;;;7.13;3.50;;;12.20;99.90;;;;;;7388762;19;20147;-74
2023/03/17 09:13:50;;;;;;;6.03;3.50;;;12.40;99.90;;;;;;7392086;19;20163;-75
2023/03/17 09:16:16;;;;;;;7.77;3.20;;;12.50;99.90;;;;;;7390924;19;20169;-74
2023/03/17 09:18:43;;;;;;;4.40;3.10;;;12.60;99.90;;;;;;7390790;19;20494;-75
2023/03/17 09:21:12;;;;;;;5.75;3.20;;;12.70;99.90;;;;;;7391191;19;20148;-76
2023/03/17 09:23:38;;;;;;;4.83;3.53;;;12.90;99.90;;;;;;7392496;19;20589;-75
2023/03/17 09:26:04;;;;;;;6.25;3.58;;;13.00;99.90;;;;;;7389456;19;20206;-75
2023/03/17 09:28:31;;;;;;;8.43;3.67;;;13.00;99.90;;;;;;7391770;19;20174;-75
2023/03/17 09:31:00;;;;;;;7.93;3.43;;;13.10;99.90;;;;;;7390087;19;20153;-75
2023/03/17 09:33:26;;;;;;;6.80;3.37;;;13.20;99.90;;;;;;7391572;19;20161;-75
2023/03/17 09:35:53;;;;;;;5.53;3.70;;;13.20;99.90;;;;;;7392982;19;20138;-74
2023/03/17 09:38:20;;;;;;;5.68;3.63;;;13.20;99.90;;;;;;7392091;19;20162;-74
2023/03/17 09:41:03;;;;;;;6.43;3.90;;;13.30;99.90;;;;;;7392263;19;20149;-75
2023/03/17 09:44:08;;;;;;;6.65;2.92;;;13.30;99.90;;;;;;7391981;19;20131;-75
2023/03/17 09:46:42;;;;;;;6.68;3.50;;;13.20;99.90;;;;;;7389807;19;20146;-74
2023/03/17 09:49:12;;;;;;;6.60;3.10;;;13.40;99.90;;;;;;7390144;19;20205;-75
2023/03/17 09:51:42;;;;;;;5.93;3.33;;;13.50;99.90;;;;;;7389128;19;20135;-75
2023/03/17 09:54:17;;;;;;;4.82;3.20;;;13.60;99.90;;;;;;7390393;19;20190;-75
2023/03/17 09:56:50;;;;;;;5.50;3.55;;;13.70;99.90;;;;;;7390179;19;20603;-74
2023/03/17 09:59:34;;;;;;;6.88;3.40;;;13.80;99.90;;;;;;7392479;19;20135;-75
2023/03/17 10:02:00;;;;;;;7.97;3.25;;;13.90;99.90;;;;;;7388930;19;20146;-75
2023/03/17 10:04:26;;;;;;;4.85;3.10;;;14.10;99.90;;;;;;7391845;19;20155;-75
2023/03/17 10:07:01;;;;;;;5.18;3.33;;;14.30;99.90;;;;;;7389535;19;20134;-73
2023/03/17 10:09:50;;;;;;;6.47;4.18;;;14.40;99.90;;;;;;7391154;19;20130;-75
2023/03/17 10:12:37;;;;;;;3.78;3.13;;;14.50;99.90;;;;;;7387282;19;20135;-74
2023/03/17 10:15:19;;;;;;;8.43;3.35;;;14.60;99.90;;;;;;7390733;19;20198;-74
2023/03/17 10:17:47;;;;;;;4.80;2.97;;;14.60;99.90;;;;;;7391044;19;20131;-74
2023/03/17 10:20:27;;;;;;;7.68;3.10;;;14.70;99.90;;;;;;7390417;19;20201;-74
2023/03/17 10:23:06;;;;;;;4.22;2.83;;;14.60;99.90;;;;;;7387011;19;20262;-74
2023/03/17 10:25:34;;;;;;;8.50;3.70;;;14.70;99.90;;;;;;7390876;19;20137;-74
2023/03/17 10:28:22;;;;;;;4.82;3.17;;;14.80;99.90;;;;;;7391887;19;20164;-74
2023/03/17 10:30:48;;;;;;;6.47;3.10;;;14.80;99.90;;;;;;7388709;19;20584;-74
2023/03/17 10:33:14;;;;;;;5.55;3.00;;;14.90;99.90;;;;;;7387983;19;20143;-74
2023/03/17 10:35:43;;;;;;;4.00;2.80;;;14.90;99.90;;;;;;7388570;19;20159;-75
2023/03/17 10:38:16;;;;;;;4.95;3.25;;;15.10;99.90;;;;;;7388194;19;20127;-74
2023/03/17 10:40:58;;;;;;;7.43;3.42;;;15.00;99.90;;;;;;7387419;19;20143;-74
2023/03/17 10:43:29;;;;;;;7.30;3.30;;;15.10;99.90;;;;;;7389899;19;20231;-75
2023/03/17 10:45:59;;;;;;;6.22;3.20;;;15.40;99.90;;;;;;7388429;19;20464;-74
2023/03/17 10:48:25;;;;;;;4.13;2.80;;;15.70;99.90;;;;;;7387867;19;20134;-75
2023/03/17 10:50:51;;;;;;;3.53;2.42;;;15.90;99.90;;;;;;7387103;19;20129;-75
2023/03/17 10:53:36;;;;;;;3.65;2.10;;;15.90;99.90;;;;;;7389230;19;20127;-76
2023/03/17 10:56:18;;;;;;;5.47;2.63;;;16.00;99.90;;;;;;7387401;19;20477;-75
2023/03/17 10:58:51;;;;;;;6.60;2.47;;;16.30;99.90;;;;;;7389651;19;20161;-73
2023/03/17 11:01:48;;;;;;;3.35;2.30;;;16.40;99.30;;;;;;7386897;19;20590;-74
2023/03/17 11:04:34;;;;;;;4.20;2.30;;;16.50;98.90;;;;;;7388065;19;20178;-74
2023/03/17 11:07:09;;;;;;;4.65;2.40;;;16.40;99.40;;;;;;7386631;19;20147;-74
2023/03/17 11:09:36;;;;;;;3.25;2.30;;;16.40;98.70;;;;;;7387098;19;20130;-74
2023/03/17 11:12:24;;;;;;;3.88;2.83;;;16.40;98.70;;;;;;7384934;19;20130;-75
2023/03/17 11:14:58;;;;;;;5.43;2.65;;;16.30;98.80;;;;;;7390676;19;20147;-73
2023/03/17 11:17:56;;;;;;;4.13;2.50;;;16.30;98.70;;;;;;7389232;19;20149;-74
2023/03/17 11:20:41;;;;;;;5.15;2.30;;;16.30;98.40;;;;;;7388472;19;20835;-74
2023/03/17 11:23:15;;;;;;;3.42;1.95;;;16.50;97.70;;;;;;7386325;19;20134;-74
2023/03/17 11:25:44;;;;;;;3.63;2.13;;;16.50;98.10;;;;;;7388236;19;20130;-74
2023/03/17 11:28:21;;;;;;;3.78;2.50;;;16.60;97.90;;;;;;7385583;19;20150;-74
2023/03/17 11:31:08;;;;;;;5.05;2.03;;;16.70;97.80;;;;;;7385983;19;20171;-74
2023/03/17 11:34:04;;;;;;;5.35;2.28;;;16.90;97.70;;;;;;7387248;19;20163;-75
2023/03/17 11:37:01;;;;;;;5.00;2.25;;;17.00;97.30;;;;;;7386512;19;20147;-73
2023/03/17 11:40:18;;;;;;;4.07;2.10;;;17.00;97.30;;;;;;7388616;19;20154;-74
2023/03/17 11:42:57;;;;;;;3.38;1.83;;;17.10;97.30;;;;;;7384229;19;20163;-75
2023/03/17 11:45:42;;;;;;;2.42;1.67;;;17.30;96.80;;;;;;7388436;19;20157;-75
2023/03/17 11:48:12;;;;;;;2.95;1.90;;;17.30;97.10;;;;;;7393027;19;20658;-77
2023/03/17 11:50:55;;;;;;;3.78;1.90;;;17.40;97.00;;;;;;7387993;19;20127;-75
2023/03/17 11:53:39;;;;;;;4.90;3.28;;;17.50;96.90;;;;;;7384593;19;20244;-75
2023/03/17 11:56:17;;;;;;;3.65;1.50;;;17.60;96.60;;;;;;7387334;19;20702;-75
2023/03/17 11:58:57;;;;;;;1.80;1.50;;;17.80;96.20;;;;;;7385803;19;20142;-74
2023/03/17 12:01:28;;;;;;;2.80;1.80;;;18.00;95.70;;;;;;7384565;19;20127;-74
2023/03/17 12:04:08;;;;;;;3.47;1.55;;;18.10;95.80;;;;;;7386287;19;20226;-75
2023/03/17 12:06:40;;;;;;;3.92;2.25;;;17.90;95.70;;;;;;7387614;19;20622;-76
2023/03/17 12:09:34;;;;;;;3.33;1.88;;;18.00;95.70;;;;;;7384740;19;20161;-74
2023/03/17 12:12:03;;;;;;;2.28;1.55;;;18.00;96.70;;;;;;7382177;19;20855;-75
2023/03/17 12:14:38;;;;;;;1.77;1.23;;;17.90;96.20;;;;;;7384387;19;20218;-74
2023/03/17 12:17:15;;;;;;;2.88;1.58;;;17.90;95.80;;;;;;7386319;19;20556;-74
2023/03/17 12:19:54;;;;;;;3.97;1.60;;;18.00;96.10;;;;;;7391025;19;20130;-74
2023/03/17 12:22:31;;;;;;;3.28;1.65;;;18.00;95.30;;;;;;7390153;19;20194;-75
2023/03/17 12:25:15;;;;;;;4.35;1.80;;;18.10;94.70;;;;;;7392183;19;20153;-75
2023/03/17 12:28:26;;;;;;;4.65;2.50;;;18.20;94.40;;;;;;7391403;19;20138;-74
2023/03/17 12:30:58;;;;;;;5.15;2.08;;;18.20;94.30;;;;;;7392132;19;20206;-74
2023/03/17 12:33:35;;;;;;;3.33;1.48;;;18.20;93.90;;;;;;7391664;19;20143;-74
2023/03/17 12:36:02;;;;;;;3.28;2.15;;;18.30;93.50;;;;;;7393321;19;20134;-74
2023/03/17 12:38:39;;;;;;;4.35;1.98;;;18.40;93.40;;;;;;7392759;19;20142;-74
2023/03/17 12:41:37;;;;;;;5.70;1.67;;;18.50;93.40;;;;;;7393375;19;20561;-75
2023/03/17 12:44:15;;;;;;;2.63;1.70;;;18.50;93.20;;;;;;7389337;19;20154;-74
2023/03/17 12:47:05;;;;;;;2.55;1.50;;;18.40;93.10;;;;;;7392854;19;20134;-76
2023/03/17 12:50:01;;;;;;;2.65;1.48;;;18.40;93.10;;;;;;7391423;19;20147;-74
2023/03/17 12:52:32;;;;;;;3.63;1.80;;;18.40;93.00;;;;;;7390818;19;20172;-75
2023/03/17 12:55:03;;;;;;;2.38;1.65;;;18.30;92.70;;;;;;7389634;19;20126;-75
2023/03/17 12:57:42;;;;;;;2.72;1.95;;;18.40;92.40;;;;;;7388000;19;20142;-74
2023/03/17 13:00:14;;;;;;;3.08;1.45;;;18.50;92.60;;;;;;7385161;19;20134;-74
2023/03/17 13:02:44;;;;;;;5.15;1.40;;;18.50;92.10;;;;;;7390025;19;20135;-76
2023/03/17 13:05:17;;;;;;;2.78;1.50;;;18.60;91.30;;;;;;7384662;19;20154;-76
2023/03/17 13:07:58;;;;;;;1.63;1.40;;;18.60;92.00;;;;;;7391464;19;20228;-77